Time;durP1;ratioP1;P1;durP2;ratioP2;P2;SDS_P1;SDS_P2;PMS_P1;PMS_P2;Temp;Humidity;BMP_temperature;BMP_pressure;BME280_temperature;BME280_humidity;BME280_pressure;Samples;Min_cycle;Max_cycle;Signal;HPM_P1;HPM_P2
2022/01/11 00:00:20;;;;;;;210.55;172.93;;;;;;;15.26;33.74;94508.50;4964959;28;20043;-66
2022/01/11 00:03:06;;;;;;;188.80;155.93;;;;;;;15.25;33.69;94506.22;4970683;28;20137;-65
2022/01/11 00:05:41;;;;;;;210.73;173.68;;;;;;;15.25;33.68;94508.91;4967924;28;20042;-65
2022/01/11 00:08:09;;;;;;;196.73;163.85;;;;;;;15.25;33.65;94506.22;4969605;28;20133;-65
2022/01/11 00:10:54;;;;;;;194.50;161.02;;;;;;;15.25;33.50;94509.69;4965883;28;20120;-65
2022/01/11 00:13:21;;;;;;;195.02;160.23;;;;;;;15.24;33.82;94513.56;4964931;28;20046;-65
2022/01/11 00:15:47;;;;;;;199.52;164.55;;;;;;;15.24;33.78;94507.41;4966655;28;20105;-65
2022/01/11 00:18:14;;;;;;;202.68;165.90;;;;;;;15.22;33.62;94510.53;4967654;28;20495;-65
2022/01/11 00:20:40;;;;;;;192.85;159.52;;;;;;;15.23;33.79;94505.88;4967216;28;20042;-65
2022/01/11 00:25:36;;;;;;;194.07;160.00;;;;;;;15.22;33.65;94507.81;4971727;28;20057;-65
2022/01/11 00:28:04;;;;;;;205.82;168.32;;;;;;;15.21;33.67;94503.63;4965227;28;20061;-66
2022/01/11 00:30:33;;;;;;;191.43;159.98;;;;;;;15.22;33.74;94509.75;4965235;28;20046;-65
2022/01/11 00:33:01;;;;;;;198.75;162.98;;;;;;;15.21;33.81;94513.63;4965829;28;20047;-65
2022/01/11 00:35:38;;;;;;;193.70;158.88;;;;;;;15.22;33.98;94513.22;4969940;28;20148;-65
2022/01/11 00:38:04;;;;;;;192.63;157.65;;;;;;;15.21;33.85;94511.69;4970993;28;20348;-65
2022/01/11 00:40:30;;;;;;;196.60;163.18;;;;;;;15.21;33.66;94511.69;4968638;28;20046;-65
2022/01/11 00:42:59;;;;;;;193.25;158.45;;;;;;;15.23;33.79;94513.97;4969561;28;20042;-66
2022/01/11 00:45:26;;;;;;;196.27;161.48;;;;;;;15.22;33.66;94515.16;4971386;28;20283;-65
2022/01/11 00:47:55;;;;;;;196.77;162.98;;;;;;;15.21;33.74;94519.78;4970755;28;20042;-65
2022/01/11 00:50:21;;;;;;;204.55;167.77;;;;;;;15.21;33.71;94521.72;4966941;28;20055;-65
2022/01/11 00:52:47;;;;;;;196.30;162.02;;;;;;;15.22;33.78;94520.53;4975539;28;20680;-65
2022/01/11 00:55:13;;;;;;;200.60;167.30;;;;;;;15.20;33.73;94522.91;4968117;28;20050;-65
2022/01/11 00:57:38;;;;;;;198.73;164.30;;;;;;;15.20;33.74;94529.03;4965005;28;20051;-65
2022/01/11 01:00:11;;;;;;;199.10;163.48;;;;;;;15.19;33.79;94530.22;4965107;28;20161;-65
2022/01/11 01:02:40;;;;;;;195.40;160.63;;;;;;;15.21;33.73;94527.09;4968594;28;20124;-67
2022/01/11 01:05:06;;;;;;;200.77;164.65;;;;;;;15.19;33.77;94530.22;4963718;28;20069;-65
2022/01/11 01:07:32;;;;;;;190.05;158.52;;;;;;;15.20;33.81;94536.38;4967815;28;20051;-65
2022/01/11 01:10:07;;;;;;;196.63;161.45;;;;;;;15.20;33.80;94541.75;4964753;28;20126;-65
2022/01/11 01:12:33;;;;;;;194.52;160.13;;;;;;;15.20;33.79;94541.75;4964380;28;20049;-65
2022/01/11 01:14:59;;;;;;;191.00;158.15;;;;;;;15.19;33.75;94537.56;4966614;28;20054;-65
2022/01/11 01:17:26;;;;;;;198.40;164.10;;;;;;;15.18;33.82;94547.56;4965741;28;20072;-65
2022/01/11 01:19:52;;;;;;;193.15;159.38;;;;;;;15.18;33.88;94544.88;4963127;28;20105;-65
2022/01/11 01:22:17;;;;;;;194.63;160.00;;;;;;;15.17;33.62;94548.75;4971533;28;20051;-65
2022/01/11 01:24:43;;;;;;;197.02;159.60;;;;;;;15.18;33.71;94547.56;4964469;28;20539;-65
2022/01/11 01:27:09;;;;;;;194.65;159.48;;;;;;;15.17;33.73;94556.81;4963338;28;20065;-65
2022/01/11 01:29:35;;;;;;;198.30;164.18;;;;;;;15.17;33.76;94556.81;4964408;28;20852;-65
2022/01/11 01:32:01;;;;;;;191.27;157.98;;;;;;;15.18;33.80;94554.91;4969100;28;20094;-65
2022/01/11 01:34:27;;;;;;;200.82;166.32;;;;;;;15.15;33.84;94559.94;4987258;28;20042;-65
2022/01/11 01:36:52;;;;;;;201.18;165.43;;;;;;;15.16;33.98;94566.84;4964381;28;20514;-65
2022/01/11 01:39:18;;;;;;;206.88;169.20;;;;;;;15.14;33.89;94560.38;4964771;28;20731;-65
2022/01/11 01:41:47;;;;;;;203.02;167.23;;;;;;;15.14;33.86;94563.81;4965295;28;20047;-65
2022/01/11 01:44:13;;;;;;;196.57;162.37;;;;;;;15.13;33.76;94558.84;4964565;28;20392;-65
2022/01/11 01:46:40;;;;;;;193.40;158.52;;;;;;;15.13;33.86;94559.59;4968317;28;20518;-65
2022/01/11 01:49:06;;;;;;;194.30;159.60;;;;;;;15.11;33.94;94556.56;4982603;28;20050;-66
2022/01/11 01:51:32;;;;;;;195.52;161.57;;;;;;;15.12;33.84;94568.09;4960302;28;20054;-65
2022/01/11 01:53:58;;;;;;;199.75;163.05;;;;;;;15.12;33.78;94568.88;4958447;28;20043;-65
2022/01/11 01:56:26;;;;;;;198.85;163.10;;;;;;;15.12;33.91;94571.56;4963640;28;20494;-65
2022/01/11 01:58:51;;;;;;;192.00;158.32;;;;;;;15.10;33.72;94565.84;4962657;28;20058;-65
2022/01/11 02:01:18;;;;;;;203.48;165.05;;;;;;;15.09;33.82;94566.25;4965201;28;20093;-66
2022/01/11 02:03:45;;;;;;;197.90;162.70;;;;;;;15.07;33.86;94566.69;4964557;28;20511;-65
2022/01/11 02:06:16;;;;;;;194.60;159.57;;;;;;;15.08;33.67;94570.13;4970585;28;20046;-65
2022/01/11 02:08:44;;;;;;;194.15;160.77;;;;;;;15.09;33.83;94568.94;4969291;28;20156;-65
2022/01/11 02:11:13;;;;;;;198.27;161.73;;;;;;;15.07;33.84;94572.06;4969757;28;20050;-65
2022/01/11 02:13:39;;;;;;;199.68;165.63;;;;;;;15.05;33.74;94571.72;4967686;28;20042;-65
2022/01/11 02:16:04;;;;;;;192.20;158.43;;;;;;;15.06;33.83;94575.94;4967764;28;20052;-65
2022/01/11 02:18:30;;;;;;;196.00;160.57;;;;;;;15.08;34.03;94575.50;4968895;28;20045;-65
2022/01/11 02:20:58;;;;;;;197.18;162.57;;;;;;;15.09;33.68;94572.41;4967698;28;20065;-66
2022/01/11 02:23:28;;;;;;;195.25;161.38;;;;;;;15.09;33.78;94575.09;4991297;28;20057;-65
2022/01/11 02:25:55;;;;;;;195.57;160.35;;;;;;;15.10;33.81;94567.78;4968932;28;20136;-65
2022/01/11 02:28:23;;;;;;;201.65;166.55;;;;;;;15.09;33.72;94569.72;4966219;28;20057;-65
2022/01/11 02:30:50;;;;;;;200.52;164.90;;;;;;;15.10;33.83;94567.78;4968563;28;20510;-65
2022/01/11 02:33:33;;;;;;;195.02;159.77;;;;;;;15.10;33.84;94583.94;4969586;28;20050;-65
2022/01/11 02:36:09;;;;;;;196.32;158.45;;;;;;;15.10;33.91;94571.22;4967010;28;20504;-65
2022/01/11 02:38:35;;;;;;;199.40;163.10;;;;;;;15.09;33.84;94577.03;4967962;28;20062;-65
2022/01/11 02:41:02;;;;;;;195.48;160.73;;;;;;;15.09;33.82;94564.31;4966620;28;20050;-65
2022/01/11 02:43:28;;;;;;;197.32;160.82;;;;;;;15.10;33.79;94567.78;4964028;28;20133;-65
2022/01/11 02:45:55;;;;;;;196.57;161.88;;;;;;;15.08;33.92;94578.22;4967922;28;20042;-65
2022/01/11 02:48:21;;;;;;;194.48;160.43;;;;;;;15.08;33.93;94575.50;4967484;28;20045;-65
2022/01/11 02:50:48;;;;;;;192.68;158.68;;;;;;;15.07;33.76;94572.06;4989723;28;20050;-66
2022/01/11 02:53:15;;;;;;;198.63;163.25;;;;;;;15.05;33.84;94574.41;4968175;28;20047;-65
2022/01/11 02:55:43;;;;;;;192.52;157.90;;;;;;;15.07;33.98;94576.69;4966075;28;20128;-65
2022/01/11 02:58:12;;;;;;;194.77;160.75;;;;;;;15.07;33.90;94580.16;4966948;28;20038;-66
2022/01/11 03:00:39;;;;;;;195.35;161.55;;;;;;;15.06;33.72;94583.25;4967489;28;20089;-65
2022/01/11 03:03:13;;;;;;;185.43;154.10;;;;;;;15.06;33.93;94585.94;4968596;28;20059;-65
2022/01/11 03:06:00;;;;;;;203.68;165.32;;;;;;;15.05;33.85;94587.88;4962384;28;20415;-65
2022/01/11 03:08:31;;;;;;;190.40;154.75;;;;;;;15.03;33.82;94592.94;4967379;28;20090;-65
2022/01/11 03:10:58;;;;;;;194.73;159.75;;;;;;;14.96;33.74;94587.72;4965767;28;20141;-65
2022/01/11 03:13:24;;;;;;;197.75;161.73;;;;;;;14.96;33.89;94592.34;4967265;28;20110;-65
2022/01/11 03:15:51;;;;;;;203.80;166.70;;;;;;;14.94;33.98;94598.16;4965290;28;20061;-65
2022/01/11 03:18:16;;;;;;;197.32;162.23;;;;;;;14.94;33.75;94598.16;4969102;28;20061;-65
2022/01/11 03:20:45;;;;;;;195.15;160.73;;;;;;;14.95;33.70;94599.66;4974473;28;20043;-66
2022/01/11 03:23:12;;;;;;;197.68;161.27;;;;;;;14.96;33.85;94597.72;4973683;28;20050;-65
2022/01/11 03:25:38;;;;;;;193.63;160.27;;;;;;;14.95;33.89;94596.97;4965509;28;20363;-65
2022/01/11 03:28:04;;;;;;;195.98;161.77;;;;;;;14.97;33.69;94589.22;4967295;28;20051;-66
2022/01/11 03:30:30;;;;;;;202.10;165.60;;;;;;;14.98;33.74;94595.38;4972675;28;20436;-65
2022/01/11 03:32:55;;;;;;;196.43;159.75;;;;;;;15.00;33.81;94601.09;4968636;28;20046;-66
2022/01/11 03:35:21;;;;;;;201.48;164.73;;;;;;;15.01;33.85;94605.31;4966075;28;20062;-65
2022/01/11 03:37:47;;;;;;;197.20;161.43;;;;;;;14.99;33.75;94600.34;4968212;28;20160;-65
2022/01/11 03:40:17;;;;;;;201.65;166.18;;;;;;;15.00;33.74;94607.25;4972628;28;20050;-65
2022/01/11 03:42:44;;;;;;;194.23;159.25;;;;;;;14.99;33.75;94603.03;4968749;28;20050;-65
2022/01/11 03:45:12;;;;;;;200.00;162.30;;;;;;;14.99;33.83;94604.97;4966106;28;20058;-65
2022/01/11 03:47:39;;;;;;;194.65;158.68;;;;;;;14.98;33.64;94611.53;4968321;28;20061;-65
2022/01/11 03:50:07;;;;;;;199.07;165.18;;;;;;;15.00;33.76;94603.78;4965975;28;20096;-65
2022/01/11 03:52:33;;;;;;;195.23;160.55;;;;;;;15.01;33.67;94613.38;4966407;28;20193;-66
2022/01/11 03:57:28;;;;;;;197.88;163.73;;;;;;;15.01;33.82;94621.47;4969429;28;20046;-66
2022/01/11 03:59:54;;;;;;;;;;;;;;;15.01;33.81;94606.06;4967399;28;20371;-65
2022/01/11 04:02:20;;;;;;;196.00;156.27;;;;;;;14.98;33.74;94604.22;4965441;28;19954;-66
2022/01/11 04:04:52;;;;;;;199.77;162.32;;;;;;;15.01;33.87;94614.16;4968024;28;20058;-66
2022/01/11 04:07:19;;;;;;;197.80;160.05;;;;;;;15.02;33.83;94614.91;4965637;28;20224;-65
2022/01/11 04:09:44;;;;;;;195.25;159.93;;;;;;;15.01;33.74;94608.00;4964910;28;20051;-65
2022/01/11 04:12:10;;;;;;;190.95;156.43;;;;;;;15.01;33.81;94610.69;4967582;28;21199;-65
2022/01/11 04:14:36;;;;;;;197.18;162.25;;;;;;;15.01;33.93;94608.00;4965932;28;20051;-66
2022/01/11 04:17:02;;;;;;;194.50;160.32;;;;;;;15.02;33.81;94609.50;4967006;28;20503;-65
2022/01/11 04:19:28;;;;;;;190.48;157.10;;;;;;;15.02;33.82;94612.22;4971755;28;20085;-66
2022/01/11 04:21:53;;;;;;;195.07;159.25;;;;;;;15.02;33.81;94617.59;4969601;28;20046;-66
2022/01/11 04:24:19;;;;;;;196.45;161.73;;;;;;;15.01;33.80;94616.84;4967903;28;20049;-65
2022/01/11 04:26:44;;;;;;;197.43;162.50;;;;;;;15.01;33.88;94611.44;4969227;28;20845;-65
2022/01/11 04:29:09;;;;;;;193.13;159.57;;;;;;;15.01;33.78;94614.16;4969602;28;20108;-65
2022/01/11 04:31:35;;;;;;;208.30;170.23;;;;;;;15.00;33.92;94606.47;4964061;28;20058;-66
2022/01/11 04:34:01;;;;;;;195.30;158.63;;;;;;;14.99;33.77;94611.13;4964747;28;20046;-65
2022/01/11 04:36:26;;;;;;;198.93;162.02;;;;;;;14.99;33.87;94607.66;4966490;28;20428;-66
2022/01/11 04:38:52;;;;;;;197.00;161.43;;;;;;;15.00;34.06;94609.19;4966717;28;20574;-65
2022/01/11 04:41:17;;;;;;;197.45;160.55;;;;;;;15.00;33.88;94612.63;4972386;28;20042;-66
2022/01/11 04:43:43;;;;;;;202.88;164.20;;;;;;;15.00;33.63;94611.88;4969012;28;20080;-65
2022/01/11 04:46:09;;;;;;;193.57;158.90;;;;;;;15.00;33.87;94617.25;4972978;28;20060;-65
2022/01/11 04:48:35;;;;;;;193.77;158.18;;;;;;;14.98;33.84;94612.28;4964980;28;20042;-66
2022/01/11 04:51:03;;;;;;;197.75;160.65;;;;;;;14.98;33.84;94608.84;4967054;28;20054;-65
2022/01/11 04:53:29;;;;;;;203.40;166.18;;;;;;;14.99;33.80;94610.34;4964661;28;20456;-66
2022/01/11 04:55:55;;;;;;;196.48;158.70;;;;;;;14.99;33.75;94607.66;4963964;28;20058;-65
2022/01/11 04:58:20;;;;;;;198.25;161.35;;;;;;;14.96;33.83;94605.81;4962049;28;20501;-65
2022/01/11 05:00:46;;;;;;;204.27;167.27;;;;;;;14.99;33.93;94608.41;4961068;28;20125;-66
2022/01/11 05:03:13;;;;;;;202.43;167.05;;;;;;;15.00;33.74;94617.25;4962330;28;20046;-66
2022/01/11 05:05:38;;;;;;;198.57;163.25;;;;;;;14.98;33.77;94611.53;4966782;28;20113;-65
2022/01/11 05:08:05;;;;;;;195.00;160.00;;;;;;;15.00;33.86;94622.66;4965630;28;20550;-64
2022/01/11 05:10:31;;;;;;;196.35;160.88;;;;;;;15.00;33.80;94626.09;4961153;28;20050;-64
2022/01/11 05:12:57;;;;;;;192.60;157.77;;;;;;;15.01;33.74;94632.25;4963750;28;20174;-64
2022/01/11 05:15:25;;;;;;;204.02;166.82;;;;;;;15.02;33.83;94639.16;4961156;28;20046;-64
2022/01/11 05:17:52;;;;;;;199.05;162.75;;;;;;;15.00;33.82;94634.19;4965183;28;20054;-65
2022/01/11 05:20:18;;;;;;;196.43;160.80;;;;;;;15.00;33.69;94633.41;4963395;28;20043;-64
2022/01/11 05:22:45;;;;;;;190.90;153.07;;;;;;;15.01;33.79;94643.00;4964348;28;20050;-65
2022/01/11 05:25:14;;;;;;;207.07;168.57;;;;;;;15.02;33.82;94642.59;4963869;28;20758;-66
2022/01/11 05:27:40;;;;;;;200.80;163.93;;;;;;;15.02;34.05;94645.28;4964255;28;20046;-65
2022/01/11 05:30:07;;;;;;;198.43;159.68;;;;;;;15.01;33.62;94645.72;4959468;28;20162;-62
2022/01/11 05:32:35;;;;;;;194.20;158.40;;;;;;;15.01;33.69;94643.00;4961734;28;20038;-64
2022/01/11 05:35:06;;;;;;;287.67;232.85;;;;;;;15.03;33.69;94643.34;4949258;28;20042;-65
2022/01/11 05:37:32;;;;;;;198.65;161.23;;;;;;;15.04;33.64;94642.19;4950647;28;21199;-65
2022/01/11 05:39:58;;;;;;;192.50;157.02;;;;;;;15.05;33.61;94649.84;4965374;28;20046;-65
2022/01/11 05:42:25;;;;;;;197.55;161.27;;;;;;;15.07;33.54;94652.13;4968185;28;20042;-66
2022/01/11 05:44:51;;;;;;;193.02;158.27;;;;;;;15.06;33.66;94650.59;4967078;28;20074;-66
2022/01/11 05:47:17;;;;;;;195.85;161.15;;;;;;;15.07;33.54;94646.72;4971711;28;20038;-65
2022/01/11 05:49:42;;;;;;;220.80;180.80;;;;;;;15.08;33.63;94650.94;4968094;28;20129;-65
2022/01/11 05:52:08;;;;;;;202.32;164.15;;;;;;;15.08;33.54;94653.63;4967990;28;20105;-65
2022/01/11 05:54:33;;;;;;;194.95;160.98;;;;;;;15.09;33.55;94655.16;4968228;28;20050;-66
2022/01/11 05:56:59;;;;;;;191.07;157.95;;;;;;;15.09;33.67;94658.59;4968027;28;20671;-66
2022/01/11 05:59:24;;;;;;;195.50;161.07;;;;;;;15.10;33.55;94668.19;4969353;28;20977;-66
2022/01/11 06:01:50;;;;;;;202.50;164.65;;;;;;;15.10;33.50;94667.44;4983533;28;20073;-65
2022/01/11 06:04:15;;;;;;;195.70;159.80;;;;;;;15.12;33.49;94673.94;4969973;28;21408;-65
2022/01/11 06:06:41;;;;;;;201.55;163.98;;;;;;;15.14;33.53;94678.91;4970055;28;20419;-66
2022/01/11 06:09:06;;;;;;;194.88;159.05;;;;;;;15.13;33.48;94686.22;4969930;28;20055;-65
2022/01/11 06:11:32;;;;;;;194.20;158.10;;;;;;;15.12;33.73;94687.41;4971518;28;20415;-66
2022/01/11 06:13:57;;;;;;;190.98;156.80;;;;;;;15.15;33.50;94691.19;4969916;28;20038;-66
2022/01/11 06:16:23;;;;;;;198.77;161.98;;;;;;;15.16;33.61;94688.09;4971018;28;20051;-65
2022/01/11 06:18:49;;;;;;;199.43;162.55;;;;;;;15.15;33.59;94688.50;4966865;28;20051;-65
2022/01/11 06:21:15;;;;;;;199.85;164.13;;;;;;;15.15;33.54;94691.19;4971010;28;20065;-66
2022/01/11 06:23:40;;;;;;;201.30;164.25;;;;;;;15.16;33.56;94696.16;4970787;28;20055;-65
2022/01/11 06:26:06;;;;;;;193.68;158.30;;;;;;;15.15;33.22;94694.66;4970380;28;20050;-66
2022/01/11 06:28:32;;;;;;;201.75;164.63;;;;;;;15.18;33.54;94703.06;4973463;28;20045;-65
2022/01/11 06:30:57;;;;;;;194.10;159.32;;;;;;;15.18;33.51;94701.13;4970818;28;20125;-66
2022/01/11 06:33:23;;;;;;;194.48;160.18;;;;;;;15.18;33.48;94701.13;4967747;28;20149;-65
2022/01/11 06:35:48;;;;;;;202.45;167.60;;;;;;;15.20;33.44;94703.41;4966759;28;20054;-65
2022/01/11 06:38:14;;;;;;;197.82;161.93;;;;;;;15.19;33.57;94710.75;4970577;28;20091;-66
2022/01/11 06:40:40;;;;;;;197.48;162.65;;;;;;;15.20;33.50;94712.25;4971218;28;20049;-66
2022/01/11 06:43:06;;;;;;;190.82;157.23;;;;;;;15.21;33.39;94711.06;4972116;28;20121;-66
2022/01/11 06:45:34;;;;;;;198.73;164.68;;;;;;;15.20;33.50;94722.28;4972755;28;20043;-66
2022/01/11 06:48:00;;;;;;;191.07;156.50;;;;;;;15.21;33.49;94724.56;4970571;28;20058;-65
2022/01/11 06:50:27;;;;;;;198.30;163.70;;;;;;;15.22;33.49;94722.63;4968487;28;20457;-65
2022/01/11 06:52:53;;;;;;;193.98;160.93;;;;;;;15.22;33.34;94722.63;4974472;28;20058;-65
2022/01/11 06:55:19;;;;;;;199.15;164.35;;;;;;;15.23;33.71;94722.19;4969415;28;20047;-66
2022/01/11 06:57:46;;;;;;;193.80;159.30;;;;;;;15.22;33.40;94720.69;4970586;28;20694;-66
2022/01/11 07:00:12;;;;;;;195.38;161.40;;;;;;;15.23;33.37;94724.13;4967452;28;20057;-65
2022/01/11 07:02:38;;;;;;;195.90;162.95;;;;;;;15.24;33.55;94725.66;4965624;28;20213;-65
2022/01/11 07:05:04;;;;;;;197.38;163.75;;;;;;;15.23;33.30;94726.81;4971897;28;20050;-65
2022/01/11 07:07:30;;;;;;;188.95;155.25;;;;;;;15.24;33.44;94731.81;4970129;28;21894;-65
2022/01/11 07:09:56;;;;;;;201.35;165.13;;;;;;;15.24;33.43;94734.50;4969476;28;20054;-65
2022/01/11 07:12:22;;;;;;;191.10;157.55;;;;;;;15.24;33.37;94725.66;4971047;28;20054;-65
2022/01/11 07:14:47;;;;;;;194.68;159.88;;;;;;;15.23;33.37;94727.59;4968279;28;20046;-65
2022/01/11 07:17:15;;;;;;;196.32;162.00;;;;;;;15.25;33.29;94729.88;4967272;28;20046;-66
2022/01/11 07:19:41;;;;;;;192.77;159.88;;;;;;;15.24;33.24;94734.50;4965784;28;20144;-65
2022/01/11 07:22:07;;;;;;;199.05;164.32;;;;;;;15.23;33.28;94735.66;4970203;28;20093;-65
2022/01/11 07:24:33;;;;;;;198.25;162.45;;;;;;;15.24;33.41;94739.88;4969139;28;20050;-66
2022/01/11 07:26:58;;;;;;;191.68;159.43;;;;;;;15.24;33.31;94745.28;4968890;28;21199;-66
2022/01/11 07:29:24;;;;;;;193.35;159.70;;;;;;;15.25;33.58;94743.34;4966778;28;20112;-66
2022/01/11 07:31:50;;;;;;;195.88;161.65;;;;;;;15.26;33.38;94750.25;4970976;28;20045;-65
2022/01/11 07:34:16;;;;;;;199.65;165.27;;;;;;;15.25;33.46;94741.41;4968512;28;20070;-66
2022/01/11 07:36:42;;;;;;;195.20;160.82;;;;;;;15.26;33.41;94750.25;4970254;28;20058;-66
2022/01/11 07:39:09;;;;;;;194.23;159.27;;;;;;;15.27;33.30;94751.75;4968025;28;20068;-65
2022/01/11 07:41:35;;;;;;;193.30;159.80;;;;;;;15.27;33.17;94757.16;4969388;28;20055;-65
2022/01/11 07:44:01;;;;;;;194.25;160.05;;;;;;;15.27;33.05;94754.47;4982429;28;20469;-68
2022/01/11 07:46:26;;;;;;;197.15;162.20;;;;;;;15.27;33.24;94763.31;4970650;28;20485;-66
2022/01/11 07:48:52;;;;;;;192.88;158.18;;;;;;;15.27;33.23;94767.94;4968155;28;20054;-66
2022/01/11 07:51:18;;;;;;;199.32;165.90;;;;;;;15.27;33.29;94765.25;4966554;28;20123;-67
2022/01/11 07:53:43;;;;;;;195.82;162.35;;;;;;;15.27;33.23;94771.38;4968702;28;20078;-66
2022/01/11 07:56:09;;;;;;;197.82;163.07;;;;;;;15.27;33.27;94757.16;4965680;28;20041;-66
2022/01/11 07:58:35;;;;;;;199.00;165.77;;;;;;;15.27;33.23;94766.00;4967521;28;20077;-65
2022/01/11 08:01:00;;;;;;;196.57;162.05;;;;;;;15.27;33.35;94768.69;4968648;28;20427;-67
2022/01/11 08:03:26;;;;;;;189.25;157.82;;;;;;;15.25;33.13;94762.19;4972357;28;20080;-66
2022/01/11 08:05:53;;;;;;;194.55;160.32;;;;;;;15.29;33.23;94768.28;4966256;28;20043;-66
2022/01/11 08:08:19;;;;;;;200.75;164.60;;;;;;;15.29;33.17;94769.03;4963987;28;20039;-67
2022/01/11 08:10:44;;;;;;;188.10;156.07;;;;;;;15.29;33.14;94769.03;4969936;28;20065;-67
2022/01/11 08:13:11;;;;;;;200.73;166.27;;;;;;;15.30;33.25;94775.94;4970090;28;20161;-67
2022/01/11 08:15:37;;;;;;;198.77;164.27;;;;;;;15.30;33.13;94778.63;4964675;28;20039;-66
2022/01/11 08:18:05;;;;;;;196.10;161.18;;;;;;;15.29;32.93;94779.81;4966922;28;20050;-66
2022/01/11 08:20:30;;;;;;;202.25;167.65;;;;;;;15.31;33.21;94776.69;4965169;28;20054;-65
2022/01/11 08:22:56;;;;;;;197.93;162.40;;;;;;;15.31;33.17;94784.78;4965851;28;20126;-67
2022/01/11 08:25:23;;;;;;;204.77;169.80;;;;;;;15.31;33.16;94779.41;4962839;28;20521;-66
2022/01/11 08:27:49;;;;;;;195.18;162.38;;;;;;;15.31;33.13;94776.69;4969211;28;20051;-67
2022/01/11 08:30:15;;;;;;;196.38;162.73;;;;;;;15.30;33.23;94777.88;4969890;28;20053;-66
2022/01/11 08:32:40;;;;;;;196.20;163.40;;;;;;;15.32;33.26;94783.59;4970977;28;20046;-67
2022/01/11 08:35:07;;;;;;;198.02;162.13;;;;;;;15.30;33.26;94781.34;4967779;28;20042;-66
2022/01/11 08:37:32;;;;;;;197.65;162.88;;;;;;;15.31;33.16;94768.63;4968117;28;20118;-67
2022/01/11 08:39:58;;;;;;;192.20;159.35;;;;;;;15.31;33.21;94769.38;4967365;28;20058;-66
2022/01/11 08:42:25;;;;;;;196.65;161.52;;;;;;;15.29;33.24;94777.13;4969404;28;20415;-65
2022/01/11 08:44:50;;;;;;;194.00;160.13;;;;;;;15.27;33.18;94774.09;4967824;28;20074;-66
2022/01/11 08:47:18;;;;;;;192.40;157.98;;;;;;;15.24;33.15;94768.75;4966251;28;20594;-65
2022/01/11 08:49:44;;;;;;;195.23;162.73;;;;;;;15.19;33.14;94775.41;4967358;28;20102;-65
2022/01/11 08:52:10;;;;;;;196.07;161.88;;;;;;;15.14;33.35;94770.50;4965358;28;20658;-65
2022/01/11 08:54:36;;;;;;;194.57;159.05;;;;;;;15.12;33.29;94772.84;4969076;28;20042;-65
2022/01/11 08:57:02;;;;;;;193.48;160.20;;;;;;;15.09;33.32;94771.75;4967200;28;20050;-65
2022/01/11 08:59:28;;;;;;;193.40;161.23;;;;;;;15.09;33.23;94773.69;4968722;28;20092;-65
2022/01/11 09:01:56;;;;;;;200.55;166.63;;;;;;;15.08;33.28;94775.63;4967387;28;20731;-65
2022/01/11 09:04:22;;;;;;;198.20;163.45;;;;;;;15.07;33.18;94776.03;4967482;28;20133;-65
2022/01/11 09:06:49;;;;;;;190.23;157.20;;;;;;;15.07;33.20;94784.13;4964539;28;20700;-65
2022/01/11 09:09:16;;;;;;;199.00;164.52;;;;;;;15.04;33.25;94791.09;4966378;28;20059;-64
2022/01/11 09:11:43;;;;;;;196.82;162.23;;;;;;;15.08;33.03;94794.47;4965817;28;20050;-65
2022/01/11 09:14:09;;;;;;;193.80;160.23;;;;;;;15.17;33.16;94796.63;4966722;28;20085;-65
2022/01/11 09:16:34;;;;;;;198.57;162.25;;;;;;;15.21;32.91;94797.31;4962836;28;20055;-65
2022/01/11 09:19:00;;;;;;;192.70;157.68;;;;;;;15.22;32.87;94798.06;4965539;28;20046;-65
2022/01/11 09:21:27;;;;;;;195.32;162.75;;;;;;;15.24;33.10;94806.50;4966449;28;20108;-65
2022/01/11 09:23:52;;;;;;;196.48;161.10;;;;;;;15.23;33.20;94808.44;4965150;28;20074;-65
2022/01/11 09:26:18;;;;;;;193.73;159.48;;;;;;;15.22;33.11;94809.59;4965572;28;20057;-65
2022/01/11 09:28:44;;;;;;;196.38;164.85;;;;;;;15.22;33.00;94812.28;4966760;28;20122;-64
2022/01/11 09:31:10;;;;;;;193.80;161.80;;;;;;;15.22;33.24;94806.91;4966857;28;20060;-65
2022/01/11 09:33:36;;;;;;;199.98;163.10;;;;;;;15.23;33.11;94813.06;4964623;28;20058;-65
2022/01/11 09:36:02;;;;;;;194.13;161.68;;;;;;;15.24;32.96;94817.25;4968573;28;20050;-65
2022/01/11 09:38:28;;;;;;;195.88;161.13;;;;;;;15.24;33.03;94820.72;4967802;28;20043;-65
2022/01/11 09:40:56;;;;;;;192.02;157.32;;;;;;;15.26;33.03;94812.22;4971418;28;20058;-65
2022/01/11 09:43:23;;;;;;;193.80;158.98;;;;;;;15.26;32.98;94823.00;4983522;28;20050;-65
2022/01/11 09:45:50;;;;;;;194.48;161.10;;;;;;;15.25;33.55;94824.94;4969218;28;20034;-65
2022/01/11 09:48:26;;;;;;;198.25;164.60;;;;;;;15.21;33.10;94821.56;4969998;28;20089;-65
2022/01/11 09:50:52;;;;;;;194.70;159.15;;;;;;;15.13;33.17;94831.72;4966953;28;20054;-65
2022/01/11 09:53:18;;;;;;;200.63;167.07;;;;;;;15.13;33.08;94828.25;4968001;28;20137;-65
2022/01/11 09:55:45;;;;;;;195.05;163.40;;;;;;;15.12;33.10;94824.78;4967721;28;20076;-65
2022/01/11 09:58:12;;;;;;;198.07;164.32;;;;;;;15.13;33.24;94831.72;4969539;28;20058;-65
2022/01/11 10:00:40;;;;;;;200.00;165.65;;;;;;;15.17;33.24;94831.63;4962762;28;20047;-65
2022/01/11 10:03:06;;;;;;;196.75;161.55;;;;;;;15.19;33.06;94829.28;4964763;28;20121;-65
2022/01/11 10:05:35;;;;;;;202.13;165.38;;;;;;;15.21;33.11;94834.25;4977401;28;20249;-65
2022/01/11 10:08:27;;;;;;;191.80;156.87;;;;;;;15.20;33.08;94833.50;4966268;28;20049;-65
2022/01/11 10:10:56;;;;;;;195.80;160.20;;;;;;;15.21;33.01;94835.03;4963162;28;20132;-65
2022/01/11 10:13:39;;;;;;;200.98;163.38;;;;;;;15.21;32.94;94826.19;4964251;28;20050;-65
2022/01/11 10:16:26;;;;;;;196.73;162.45;;;;;;;15.15;32.97;94829.34;4966960;28;20054;-65
2022/01/11 10:18:53;;;;;;;193.32;159.50;;;;;;;15.18;33.17;94832.41;4959682;28;20197;-65
2022/01/11 10:21:37;;;;;;;196.85;160.50;;;;;;;15.14;33.24;94827.06;4963255;28;20058;-65
2022/01/11 10:24:21;;;;;;;197.55;162.80;;;;;;;15.10;33.03;94824.44;4965669;28;20606;-65
2022/01/11 10:26:47;;;;;;;197.45;161.60;;;;;;;15.14;33.14;94817.06;4969235;28;20487;-65
2022/01/11 10:29:53;;;;;;;196.00;162.00;;;;;;;15.11;33.15;94812.50;4971781;28;20470;-65
2022/01/11 10:32:28;;;;;;;196.40;158.68;;;;;;;15.12;33.03;94811.31;4950617;28;20089;-65
2022/01/11 10:34:56;;;;;;;195.77;160.07;;;;;;;15.14;32.97;94814.38;4967727;28;20146;-65
2022/01/11 10:37:33;;;;;;;189.73;155.77;;;;;;;15.14;32.99;94817.06;4966269;28;22225;-65
2022/01/11 10:40:16;;;;;;;206.45;168.13;;;;;;;15.12;33.16;94807.88;4967608;28;20058;-65
2022/01/11 10:42:49;;;;;;;194.75;158.98;;;;;;;15.16;33.10;94813.94;4970549;28;20049;-64
2022/01/11 10:45:16;;;;;;;219.98;176.65;;;;;;;15.14;32.81;94810.91;4968870;28;20054;-64
2022/01/11 10:47:44;;;;;;;197.40;160.35;;;;;;;15.14;32.92;94813.59;4971183;28;20514;-64
2022/01/11 10:50:18;;;;;;;205.32;168.32;;;;;;;15.18;32.98;94810.84;4967976;28;20506;-64
2022/01/11 10:52:45;;;;;;;195.73;159.82;;;;;;;15.15;32.62;94815.13;4967556;28;20141;-65
2022/01/11 10:55:19;;;;;;;200.15;162.52;;;;;;;15.19;32.88;94809.66;4961606;28;20113;-66
2022/01/11 10:57:56;;;;;;;195.25;159.20;;;;;;;15.22;32.76;94815.00;4969784;28;20050;-66
2022/01/11 11:00:24;;;;;;;202.50;165.85;;;;;;;15.19;32.79;94820.44;4972175;28;20046;-67
2022/01/11 11:03:07;;;;;;;199.20;162.10;;;;;;;15.15;32.73;94818.59;4969145;28;20054;-66
2022/01/11 11:05:50;;;;;;;196.90;160.13;;;;;;;15.14;32.82;94816.31;4969668;28;20046;-67
2022/01/11 11:08:20;;;;;;;190.73;156.25;;;;;;;15.18;32.78;94816.22;4969744;28;20537;-66